sensor_id;sensor_type;location;lat;lon;timestamp;temperature;humidity
17452;DHT22;8843;48.838;9.324;2022-07-24T00:02:06;25.70;62.80
17452;DHT22;8843;48.838;9.324;2022-07-24T00:04:33;25.70;62.90
17452;DHT22;8843;48.838;9.324;2022-07-24T00:07:00;25.70;62.80
17452;DHT22;8843;48.838;9.324;2022-07-24T00:09:27;25.70;63.00
17452;DHT22;8843;48.838;9.324;2022-07-24T00:11:53;25.70;63.20
17452;DHT22;8843;48.838;9.324;2022-07-24T00:14:22;25.70;63.00
17452;DHT22;8843;48.838;9.324;2022-07-24T00:16:49;25.70;62.90
17452;DHT22;8843;48.838;9.324;2022-07-24T00:19:16;25.70;62.90
17452;DHT22;8843;48.838;9.324;2022-07-24T00:21:43;25.70;62.90
17452;DHT22;8843;48.838;9.324;2022-07-24T00:24:10;25.70;62.90
17452;DHT22;8843;48.838;9.324;2022-07-24T00:26:37;25.70;63.00
17452;DHT22;8843;48.838;9.324;2022-07-24T00:29:04;25.70;63.10
17452;DHT22;8843;48.838;9.324;2022-07-24T00:31:32;25.60;63.00
17452;DHT22;8843;48.838;9.324;2022-07-24T00:33:59;25.60;63.10
17452;DHT22;8843;48.838;9.324;2022-07-24T00:36:26;25.60;63.00
17452;DHT22;8843;48.838;9.324;2022-07-24T00:38:53;25.60;63.10
17452;DHT22;8843;48.838;9.324;2022-07-24T00:41:20;25.60;63.10
17452;DHT22;8843;48.838;9.324;2022-07-24T00:44:01;25.60;63.10
17452;DHT22;8843;48.838;9.324;2022-07-24T00:46:29;25.60;63.10
17452;DHT22;8843;48.838;9.324;2022-07-24T00:48:57;25.60;63.20
17452;DHT22;8843;48.838;9.324;2022-07-24T00:51:25;25.60;63.30
17452;DHT22;8843;48.838;9.324;2022-07-24T00:53:52;25.50;63.20
17452;DHT22;8843;48.838;9.324;2022-07-24T00:56:19;25.50;64.00
17452;DHT22;8843;48.838;9.324;2022-07-24T00:58:46;25.50;63.30
17452;DHT22;8843;48.838;9.324;2022-07-24T01:01:13;25.50;63.40
17452;DHT22;8843;48.838;9.324;2022-07-24T01:03:40;25.50;63.30
17452;DHT22;8843;48.838;9.324;2022-07-24T01:06:09;25.50;63.30
17452;DHT22;8843;48.838;9.324;2022-07-24T01:08:37;25.60;63.40
17452;DHT22;8843;48.838;9.324;2022-07-24T01:11:04;25.50;63.30
17452;DHT22;8843;48.838;9.324;2022-07-24T01:13:32;25.50;63.30
17452;DHT22;8843;48.838;9.324;2022-07-24T01:15:59;25.50;63.40
17452;DHT22;8843;48.838;9.324;2022-07-24T01:18:26;25.50;63.50
17452;DHT22;8843;48.838;9.324;2022-07-24T01:20:55;25.50;63.50
17452;DHT22;8843;48.838;9.324;2022-07-24T01:23:22;25.50;63.50
17452;DHT22;8843;48.838;9.324;2022-07-24T01:25:49;25.50;63.60
17452;DHT22;8843;48.838;9.324;2022-07-24T01:28:16;25.50;63.60
17452;DHT22;8843;48.838;9.324;2022-07-24T01:30:44;25.50;63.70
17452;DHT22;8843;48.838;9.324;2022-07-24T01:33:11;25.50;63.60
17452;DHT22;8843;48.838;9.324;2022-07-24T01:35:39;25.50;63.70
17452;DHT22;8843;48.838;9.324;2022-07-24T01:38:08;25.50;63.70
17452;DHT22;8843;48.838;9.324;2022-07-24T01:40:35;25.40;63.70
17452;DHT22;8843;48.838;9.324;2022-07-24T01:43:02;25.40;63.80
17452;DHT22;8843;48.838;9.324;2022-07-24T01:45:29;25.40;63.80
17452;DHT22;8843;48.838;9.324;2022-07-24T01:47:57;25.40;63.80
17452;DHT22;8843;48.838;9.324;2022-07-24T01:50:24;25.40;63.90
17452;DHT22;8843;48.838;9.324;2022-07-24T01:52:51;25.40;63.90
17452;DHT22;8843;48.838;9.324;2022-07-24T01:55:20;25.40;63.80
17452;DHT22;8843;48.838;9.324;2022-07-24T01:57:47;25.30;63.70
17452;DHT22;8843;48.838;9.324;2022-07-24T02:00:16;25.40;63.80
17452;DHT22;8843;48.838;9.324;2022-07-24T02:02:44;25.40;63.80
17452;DHT22;8843;48.838;9.324;2022-07-24T02:05:12;25.40;63.80
17452;DHT22;8843;48.838;9.324;2022-07-24T02:07:41;25.40;63.90
17452;DHT22;8843;48.838;9.324;2022-07-24T02:10:09;25.30;63.80
17452;DHT22;8843;48.838;9.324;2022-07-24T02:12:38;25.30;63.80
17452;DHT22;8843;48.838;9.324;2022-07-24T02:15:06;25.30;63.90
17452;DHT22;8843;48.838;9.324;2022-07-24T02:17:33;25.30;63.80
17452;DHT22;8843;48.838;9.324;2022-07-24T02:20:00;25.30;63.90
17452;DHT22;8843;48.838;9.324;2022-07-24T02:22:28;25.30;64.00
17452;DHT22;8843;48.838;9.324;2022-07-24T02:24:55;25.30;63.80
17452;DHT22;8843;48.838;9.324;2022-07-24T02:27:22;25.30;63.90
17452;DHT22;8843;48.838;9.324;2022-07-24T02:29:50;25.30;64.00
17452;DHT22;8843;48.838;9.324;2022-07-24T02:32:17;25.30;63.90
17452;DHT22;8843;48.838;9.324;2022-07-24T02:34:43;25.30;63.90
17452;DHT22;8843;48.838;9.324;2022-07-24T02:37:10;25.30;64.00
17452;DHT22;8843;48.838;9.324;2022-07-24T02:39:37;25.30;64.00
17452;DHT22;8843;48.838;9.324;2022-07-24T02:42:04;25.30;64.00
17452;DHT22;8843;48.838;9.324;2022-07-24T02:44:31;25.30;64.00
17452;DHT22;8843;48.838;9.324;2022-07-24T02:47:00;25.20;64.00
17452;DHT22;8843;48.838;9.324;2022-07-24T02:49:27;25.30;64.00
17452;DHT22;8843;48.838;9.324;2022-07-24T02:51:53;25.20;63.90
17452;DHT22;8843;48.838;9.324;2022-07-24T02:54:20;25.30;64.10
17452;DHT22;8843;48.838;9.324;2022-07-24T02:56:47;25.20;64.10
17452;DHT22;8843;48.838;9.324;2022-07-24T02:59:14;25.30;64.10
17452;DHT22;8843;48.838;9.324;2022-07-24T03:01:41;25.20;64.00
17452;DHT22;8843;48.838;9.324;2022-07-24T03:04:10;25.20;64.00
17452;DHT22;8843;48.838;9.324;2022-07-24T03:06:37;25.20;64.80
17452;DHT22;8843;48.838;9.324;2022-07-24T03:09:04;25.20;64.00
17452;DHT22;8843;48.838;9.324;2022-07-24T03:11:31;25.20;64.10
17452;DHT22;8843;48.838;9.324;2022-07-24T03:13:57;25.20;64.00
17452;DHT22;8843;48.838;9.324;2022-07-24T03:16:24;25.20;64.00
17452;DHT22;8843;48.838;9.324;2022-07-24T03:18:51;25.20;64.10
17452;DHT22;8843;48.838;9.324;2022-07-24T03:21:20;25.20;64.10
17452;DHT22;8843;48.838;9.324;2022-07-24T03:23:46;25.20;64.20
17452;DHT22;8843;48.838;9.324;2022-07-24T03:26:13;25.20;64.20
17452;DHT22;8843;48.838;9.324;2022-07-24T03:28:40;25.20;64.20
17452;DHT22;8843;48.838;9.324;2022-07-24T03:31:07;25.10;64.10
17452;DHT22;8843;48.838;9.324;2022-07-24T03:33:34;25.10;64.10
17452;DHT22;8843;48.838;9.324;2022-07-24T03:36:01;25.10;64.20
17452;DHT22;8843;48.838;9.324;2022-07-24T03:38:30;25.10;64.20
17452;DHT22;8843;48.838;9.324;2022-07-24T03:40:57;25.10;64.20
17452;DHT22;8843;48.838;9.324;2022-07-24T03:43:24;25.10;64.20
17452;DHT22;8843;48.838;9.324;2022-07-24T03:45:51;25.10;64.20
17452;DHT22;8843;48.838;9.324;2022-07-24T03:48:18;25.10;64.30
17452;DHT22;8843;48.838;9.324;2022-07-24T03:50:45;25.10;64.20
17452;DHT22;8843;48.838;9.324;2022-07-24T03:53:12;25.10;64.20
17452;DHT22;8843;48.838;9.324;2022-07-24T03:55:40;25.10;64.40
17452;DHT22;8843;48.838;9.324;2022-07-24T03:58:07;25.10;64.40
17452;DHT22;8843;48.838;9.324;2022-07-24T04:00:34;25.10;64.40
17452;DHT22;8843;48.838;9.324;2022-07-24T04:03:01;25.10;64.40
17452;DHT22;8843;48.838;9.324;2022-07-24T04:05:28;25.10;64.40
17452;DHT22;8843;48.838;9.324;2022-07-24T04:07:55;25.10;64.50
17452;DHT22;8843;48.838;9.324;2022-07-24T04:10:22;25.10;64.40
17452;DHT22;8843;48.838;9.324;2022-07-24T04:12:50;25.00;64.40
17452;DHT22;8843;48.838;9.324;2022-07-24T04:15:17;25.00;64.40
17452;DHT22;8843;48.838;9.324;2022-07-24T04:17:44;25.00;64.40
17452;DHT22;8843;48.838;9.324;2022-07-24T04:20:11;25.00;64.40
17452;DHT22;8843;48.838;9.324;2022-07-24T04:22:39;25.00;64.40
17452;DHT22;8843;48.838;9.324;2022-07-24T04:25:07;25.00;64.40
17452;DHT22;8843;48.838;9.324;2022-07-24T04:27:34;25.00;64.40
17452;DHT22;8843;48.838;9.324;2022-07-24T04:30:03;25.00;64.40
17452;DHT22;8843;48.838;9.324;2022-07-24T04:32:31;25.00;64.40
17452;DHT22;8843;48.838;9.324;2022-07-24T04:34:58;25.00;64.50
17452;DHT22;8843;48.838;9.324;2022-07-24T04:37:25;25.00;64.40
17452;DHT22;8843;48.838;9.324;2022-07-24T04:39:52;25.00;64.50
17452;DHT22;8843;48.838;9.324;2022-07-24T04:42:19;25.00;64.60
17452;DHT22;8843;48.838;9.324;2022-07-24T04:44:46;25.00;64.50
17452;DHT22;8843;48.838;9.324;2022-07-24T04:47:14;25.00;64.60
17452;DHT22;8843;48.838;9.324;2022-07-24T04:49:41;25.00;64.60
17452;DHT22;8843;48.838;9.324;2022-07-24T04:52:08;24.90;64.50
17452;DHT22;8843;48.838;9.324;2022-07-24T04:54:35;24.90;64.60
17452;DHT22;8843;48.838;9.324;2022-07-24T04:57:03;24.90;64.60
17452;DHT22;8843;48.838;9.324;2022-07-24T04:59:30;24.90;64.60
17452;DHT22;8843;48.838;9.324;2022-07-24T05:01:56;24.90;65.30
17452;DHT22;8843;48.838;9.324;2022-07-24T05:04:25;24.90;64.60
17452;DHT22;8843;48.838;9.324;2022-07-24T05:06:52;24.90;64.60
17452;DHT22;8843;48.838;9.324;2022-07-24T05:09:19;24.90;65.40
17452;DHT22;8843;48.838;9.324;2022-07-24T05:11:46;24.90;64.60
17452;DHT22;8843;48.838;9.324;2022-07-24T05:14:13;24.90;64.60
17452;DHT22;8843;48.838;9.324;2022-07-24T05:16:40;24.90;64.70
17452;DHT22;8843;48.838;9.324;2022-07-24T05:19:07;24.90;64.70
17452;DHT22;8843;48.838;9.324;2022-07-24T05:21:35;24.90;64.70
17452;DHT22;8843;48.838;9.324;2022-07-24T05:24:02;24.90;64.80
17452;DHT22;8843;48.838;9.324;2022-07-24T05:26:30;24.90;64.80
17452;DHT22;8843;48.838;9.324;2022-07-24T05:28:57;24.90;64.80
17452;DHT22;8843;48.838;9.324;2022-07-24T05:31:24;24.90;64.80
17452;DHT22;8843;48.838;9.324;2022-07-24T05:33:51;24.90;64.90
17452;DHT22;8843;48.838;9.324;2022-07-24T05:36:19;24.90;64.90
17452;DHT22;8843;48.838;9.324;2022-07-24T05:38:47;24.90;65.00
17452;DHT22;8843;48.838;9.324;2022-07-24T05:41:14;24.90;65.00
17452;DHT22;8843;48.838;9.324;2022-07-24T05:43:41;24.90;64.90
17452;DHT22;8843;48.838;9.324;2022-07-24T05:46:08;24.90;65.00
17452;DHT22;8843;48.838;9.324;2022-07-24T05:48:35;24.90;65.00
17452;DHT22;8843;48.838;9.324;2022-07-24T05:51:02;24.80;64.90
17452;DHT22;8843;48.838;9.324;2022-07-24T05:53:29;24.80;65.00
17452;DHT22;8843;48.838;9.324;2022-07-24T05:55:57;24.80;64.90
17452;DHT22;8843;48.838;9.324;2022-07-24T05:58:24;24.80;64.90
17452;DHT22;8843;48.838;9.324;2022-07-24T06:00:51;24.80;64.90
17452;DHT22;8843;48.838;9.324;2022-07-24T06:03:18;24.80;65.00
17452;DHT22;8843;48.838;9.324;2022-07-24T06:05:45;24.80;64.80
17452;DHT22;8843;48.838;9.324;2022-07-24T06:08:12;24.80;64.90
17452;DHT22;8843;48.838;9.324;2022-07-24T06:10:39;24.80;64.90
17452;DHT22;8843;48.838;9.324;2022-07-24T06:13:07;24.80;64.90
17452;DHT22;8843;48.838;9.324;2022-07-24T06:15:34;24.80;64.90
17452;DHT22;8843;48.838;9.324;2022-07-24T06:18:01;24.80;65.00
17452;DHT22;8843;48.838;9.324;2022-07-24T06:20:28;24.80;65.00
17452;DHT22;8843;48.838;9.324;2022-07-24T06:22:55;24.80;65.00
17452;DHT22;8843;48.838;9.324;2022-07-24T06:25:22;24.80;64.90
17452;DHT22;8843;48.838;9.324;2022-07-24T06:27:51;24.80;64.90
17452;DHT22;8843;48.838;9.324;2022-07-24T06:30:22;24.80;65.00
17452;DHT22;8843;48.838;9.324;2022-07-24T06:32:52;24.80;64.90
17452;DHT22;8843;48.838;9.324;2022-07-24T06:35:19;24.80;64.90
17452;DHT22;8843;48.838;9.324;2022-07-24T06:40:32;24.80;65.00
17452;DHT22;8843;48.838;9.324;2022-07-24T06:43:00;24.80;64.90
17452;DHT22;8843;48.838;9.324;2022-07-24T06:45:28;24.80;64.90
17452;DHT22;8843;48.838;9.324;2022-07-24T06:47:56;24.90;65.00
17452;DHT22;8843;48.838;9.324;2022-07-24T06:50:23;24.80;64.90
17452;DHT22;8843;48.838;9.324;2022-07-24T06:52:50;24.80;64.90
17452;DHT22;8843;48.838;9.324;2022-07-24T06:55:17;24.80;64.90
17452;DHT22;8843;48.838;9.324;2022-07-24T06:57:44;24.80;65.00
17452;DHT22;8843;48.838;9.324;2022-07-24T07:00:12;24.80;65.70
17452;DHT22;8843;48.838;9.324;2022-07-24T07:02:40;24.80;64.90
17452;DHT22;8843;48.838;9.324;2022-07-24T07:05:08;24.80;64.90
17452;DHT22;8843;48.838;9.324;2022-07-24T07:07:36;24.90;65.20
17452;DHT22;8843;48.838;9.324;2022-07-24T07:10:04;24.90;64.90
17452;DHT22;8843;48.838;9.324;2022-07-24T07:12:32;24.90;64.80
17452;DHT22;8843;48.838;9.324;2022-07-24T07:14:58;24.90;64.80
17452;DHT22;8843;48.838;9.324;2022-07-24T07:17:25;24.90;64.80
17452;DHT22;8843;48.838;9.324;2022-07-24T07:19:54;24.90;64.70
17452;DHT22;8843;48.838;9.324;2022-07-24T07:22:21;24.90;64.60
17452;DHT22;8843;48.838;9.324;2022-07-24T07:24:48;24.90;64.60
17452;DHT22;8843;48.838;9.324;2022-07-24T07:27:14;24.90;65.40
17452;DHT22;8843;48.838;9.324;2022-07-24T07:29:42;24.90;65.50
17452;DHT22;8843;48.838;9.324;2022-07-24T07:32:08;24.90;64.80
17452;DHT22;8843;48.838;9.324;2022-07-24T07:34:35;24.90;64.60
17452;DHT22;8843;48.838;9.324;2022-07-24T07:37:03;24.90;65.20
17452;DHT22;8843;48.838;9.324;2022-07-24T07:39:30;24.90;66.00
17452;DHT22;8843;48.838;9.324;2022-07-24T07:41:57;24.90;65.90
17452;DHT22;8843;48.838;9.324;2022-07-24T07:44:24;24.90;65.10
17452;DHT22;8843;48.838;9.324;2022-07-24T07:46:51;24.90;65.90
17452;DHT22;8843;48.838;9.324;2022-07-24T07:49:18;24.90;64.80
17452;DHT22;8843;48.838;9.324;2022-07-24T07:51:45;24.90;65.80
17452;DHT22;8843;48.838;9.324;2022-07-24T07:54:14;24.90;66.70
17452;DHT22;8843;48.838;9.324;2022-07-24T07:56:42;25.00;67.00
17452;DHT22;8843;48.838;9.324;2022-07-24T07:59:09;25.00;67.80
17452;DHT22;8843;48.838;9.324;2022-07-24T08:01:36;25.00;66.40
17452;DHT22;8843;48.838;9.324;2022-07-24T08:04:03;25.00;67.60
17452;DHT22;8843;48.838;9.324;2022-07-24T08:06:30;25.00;67.10
17452;DHT22;8843;48.838;9.324;2022-07-24T08:08:57;25.10;66.30
17452;DHT22;8843;48.838;9.324;2022-07-24T08:11:25;25.10;67.60
17452;DHT22;8843;48.838;9.324;2022-07-24T08:13:52;25.10;64.90
17452;DHT22;8843;48.838;9.324;2022-07-24T08:16:19;25.10;66.00
17452;DHT22;8843;48.838;9.324;2022-07-24T08:18:46;25.20;66.00
17452;DHT22;8843;48.838;9.324;2022-07-24T08:21:13;25.30;65.40
17452;DHT22;8843;48.838;9.324;2022-07-24T08:23:41;25.30;64.30
17452;DHT22;8843;48.838;9.324;2022-07-24T08:26:07;25.30;64.90
17452;DHT22;8843;48.838;9.324;2022-07-24T08:28:36;25.40;65.40
17452;DHT22;8843;48.838;9.324;2022-07-24T08:31:03;25.50;64.80
17452;DHT22;8843;48.838;9.324;2022-07-24T08:33:30;25.50;64.20
17452;DHT22;8843;48.838;9.324;2022-07-24T08:35:57;25.60;65.20
17452;DHT22;8843;48.838;9.324;2022-07-24T08:38:24;25.70;64.60
17452;DHT22;8843;48.838;9.324;2022-07-24T08:40:51;25.80;64.10
17452;DHT22;8843;48.838;9.324;2022-07-24T08:43:18;25.90;64.20
17452;DHT22;8843;48.838;9.324;2022-07-24T08:45:46;25.90;63.90
17452;DHT22;8843;48.838;9.324;2022-07-24T08:48:14;26.00;64.40
17452;DHT22;8843;48.838;9.324;2022-07-24T08:50:43;26.10;63.00
17452;DHT22;8843;48.838;9.324;2022-07-24T08:53:10;26.10;62.70
17452;DHT22;8843;48.838;9.324;2022-07-24T08:55:37;26.20;62.80
17452;DHT22;8843;48.838;9.324;2022-07-24T08:58:04;26.20;62.50
17452;DHT22;8843;48.838;9.324;2022-07-24T09:00:32;26.40;62.90
17452;DHT22;8843;48.838;9.324;2022-07-24T09:03:00;26.20;62.20
17452;DHT22;8843;48.838;9.324;2022-07-24T09:05:27;26.30;61.60
17452;DHT22;8843;48.838;9.324;2022-07-24T09:08:06;26.40;61.50
17452;DHT22;8843;48.838;9.324;2022-07-24T09:10:33;26.60;60.20
17452;DHT22;8843;48.838;9.324;2022-07-24T09:13:12;26.60;60.40
17452;DHT22;8843;48.838;9.324;2022-07-24T09:15:46;26.70;59.70
17452;DHT22;8843;48.838;9.324;2022-07-24T09:18:30;26.70;59.90
17452;DHT22;8843;48.838;9.324;2022-07-24T09:20:58;27.00;59.80
17452;DHT22;8843;48.838;9.324;2022-07-24T09:23:26;27.00;58.90
17452;DHT22;8843;48.838;9.324;2022-07-24T09:25:54;27.10;59.30
17452;DHT22;8843;48.838;9.324;2022-07-24T09:28:21;27.00;59.30
17452;DHT22;8843;48.838;9.324;2022-07-24T09:30:48;27.10;59.30
17452;DHT22;8843;48.838;9.324;2022-07-24T09:33:17;27.30;59.40
17452;DHT22;8843;48.838;9.324;2022-07-24T09:35:49;27.40;58.50
17452;DHT22;8843;48.838;9.324;2022-07-24T09:38:19;27.30;58.90
17452;DHT22;8843;48.838;9.324;2022-07-24T09:40:49;27.30;58.60
17452;DHT22;8843;48.838;9.324;2022-07-24T09:43:19;27.40;58.90
17452;DHT22;8843;48.838;9.324;2022-07-24T09:45:59;27.50;58.30
17452;DHT22;8843;48.838;9.324;2022-07-24T09:48:29;27.60;58.20
17452;DHT22;8843;48.838;9.324;2022-07-24T09:51:00;27.70;58.40
17452;DHT22;8843;48.838;9.324;2022-07-24T09:53:28;27.90;57.80
17452;DHT22;8843;48.838;9.324;2022-07-24T09:56:02;28.10;58.20
17452;DHT22;8843;48.838;9.324;2022-07-24T09:58:29;28.10;57.20
17452;DHT22;8843;48.838;9.324;2022-07-24T10:00:58;28.30;56.90
17452;DHT22;8843;48.838;9.324;2022-07-24T10:03:28;28.40;57.00
17452;DHT22;8843;48.838;9.324;2022-07-24T10:05:59;28.50;56.00
17452;DHT22;8843;48.838;9.324;2022-07-24T10:08:27;28.50;56.10
17452;DHT22;8843;48.838;9.324;2022-07-24T10:10:55;28.10;57.10
17452;DHT22;8843;48.838;9.324;2022-07-24T10:13:23;27.80;57.70
17452;DHT22;8843;48.838;9.324;2022-07-24T10:16:10;27.00;58.80
17452;DHT22;8843;48.838;9.324;2022-07-24T10:18:46;26.50;60.00
17452;DHT22;8843;48.838;9.324;2022-07-24T10:21:17;26.60;60.00
17452;DHT22;8843;48.838;9.324;2022-07-24T10:24:12;26.80;59.50
17452;DHT22;8843;48.838;9.324;2022-07-24T10:26:50;26.20;60.70
17452;DHT22;8843;48.838;9.324;2022-07-24T10:29:20;26.30;61.00
17452;DHT22;8843;48.838;9.324;2022-07-24T10:31:49;26.30;60.90
17452;DHT22;8843;48.838;9.324;2022-07-24T10:34:24;26.30;61.70
17452;DHT22;8843;48.838;9.324;2022-07-24T10:37:04;26.70;60.00
17452;DHT22;8843;48.838;9.324;2022-07-24T10:39:37;26.80;60.80
17452;DHT22;8843;48.838;9.324;2022-07-24T10:42:06;27.50;59.20
17452;DHT22;8843;48.838;9.324;2022-07-24T10:44:33;27.50;58.30
17452;DHT22;8843;48.838;9.324;2022-07-24T10:47:05;27.30;58.30
17452;DHT22;8843;48.838;9.324;2022-07-24T10:49:50;27.60;58.70
17452;DHT22;8843;48.838;9.324;2022-07-24T10:52:25;28.00;57.20
17452;DHT22;8843;48.838;9.324;2022-07-24T10:55:24;27.90;57.30
17452;DHT22;8843;48.838;9.324;2022-07-24T10:57:57;28.30;57.00
17452;DHT22;8843;48.838;9.324;2022-07-24T11:00:26;27.60;57.60
17452;DHT22;8843;48.838;9.324;2022-07-24T11:02:58;27.20;59.50
17452;DHT22;8843;48.838;9.324;2022-07-24T11:05:31;27.60;59.00
17452;DHT22;8843;48.838;9.324;2022-07-24T11:08:29;28.00;57.40
17452;DHT22;8843;48.838;9.324;2022-07-24T11:11:15;27.30;58.30
17452;DHT22;8843;48.838;9.324;2022-07-24T11:13:50;27.90;58.10
17452;DHT22;8843;48.838;9.324;2022-07-24T11:16:22;29.10;55.00
17452;DHT22;8843;48.838;9.324;2022-07-24T11:19:27;28.70;56.50
17452;DHT22;8843;48.838;9.324;2022-07-24T11:22:09;29.00;55.20
17452;DHT22;8843;48.838;9.324;2022-07-24T11:24:42;27.90;57.30
17452;DHT22;8843;48.838;9.324;2022-07-24T11:27:41;27.80;57.40
17452;DHT22;8843;48.838;9.324;2022-07-24T11:30:09;27.20;59.10
17452;DHT22;8843;48.838;9.324;2022-07-24T11:32:38;27.90;56.80
17452;DHT22;8843;48.838;9.324;2022-07-24T11:35:06;27.40;58.30
17452;DHT22;8843;48.838;9.324;2022-07-24T11:37:35;27.30;58.50
17452;DHT22;8843;48.838;9.324;2022-07-24T11:40:04;26.70;59.70
17452;DHT22;8843;48.838;9.324;2022-07-24T11:42:32;26.80;59.70
17452;DHT22;8843;48.838;9.324;2022-07-24T11:45:00;26.90;59.80
17452;DHT22;8843;48.838;9.324;2022-07-24T11:47:28;26.50;60.60
17452;DHT22;8843;48.838;9.324;2022-07-24T11:49:56;26.50;60.70
17452;DHT22;8843;48.838;9.324;2022-07-24T11:52:26;26.50;60.90
17452;DHT22;8843;48.838;9.324;2022-07-24T11:54:55;26.10;61.80
17452;DHT22;8843;48.838;9.324;2022-07-24T11:57:25;26.00;62.10
17452;DHT22;8843;48.838;9.324;2022-07-24T11:59:52;26.00;62.40
17452;DHT22;8843;48.838;9.324;2022-07-24T12:02:21;26.20;62.20
17452;DHT22;8843;48.838;9.324;2022-07-24T12:04:48;26.30;61.30
17452;DHT22;8843;48.838;9.324;2022-07-24T12:07:18;26.80;60.20
17452;DHT22;8843;48.838;9.324;2022-07-24T12:09:48;27.10;57.30
17452;DHT22;8843;48.838;9.324;2022-07-24T12:12:20;29.80;50.00
17452;DHT22;8843;48.838;9.324;2022-07-24T12:14:50;31.00;50.20
17452;DHT22;8843;48.838;9.324;2022-07-24T12:17:17;30.30;51.30
17452;DHT22;8843;48.838;9.324;2022-07-24T12:19:51;29.70;52.00
17452;DHT22;8843;48.838;9.324;2022-07-24T12:22:19;30.00;52.30
17452;DHT22;8843;48.838;9.324;2022-07-24T12:24:46;30.00;52.20
17452;DHT22;8843;48.838;9.324;2022-07-24T12:27:31;29.90;52.00
17452;DHT22;8843;48.838;9.324;2022-07-24T12:30:00;29.70;52.30
17452;DHT22;8843;48.838;9.324;2022-07-24T12:32:27;29.70;53.20
17452;DHT22;8843;48.838;9.324;2022-07-24T12:34:55;29.90;53.00
17452;DHT22;8843;48.838;9.324;2022-07-24T12:37:22;29.90;52.30
17452;DHT22;8843;48.838;9.324;2022-07-24T12:39:50;30.30;52.60
17452;DHT22;8843;48.838;9.324;2022-07-24T12:42:18;30.50;51.80
17452;DHT22;8843;48.838;9.324;2022-07-24T12:44:45;30.70;50.60
17452;DHT22;8843;48.838;9.324;2022-07-24T12:47:14;30.70;50.60
17452;DHT22;8843;48.838;9.324;2022-07-24T12:49:42;30.70;51.00
17452;DHT22;8843;48.838;9.324;2022-07-24T12:52:19;30.30;50.40
17452;DHT22;8843;48.838;9.324;2022-07-24T12:54:47;30.40;50.70
17452;DHT22;8843;48.838;9.324;2022-07-24T12:57:14;30.50;50.70
17452;DHT22;8843;48.838;9.324;2022-07-24T12:59:43;30.60;50.90
17452;DHT22;8843;48.838;9.324;2022-07-24T13:02:15;30.50;50.90
17452;DHT22;8843;48.838;9.324;2022-07-24T13:04:43;30.70;50.10
17452;DHT22;8843;48.838;9.324;2022-07-24T13:07:10;30.30;50.80
17452;DHT22;8843;48.838;9.324;2022-07-24T13:09:37;30.70;50.50
17452;DHT22;8843;48.838;9.324;2022-07-24T13:12:06;30.80;49.90
17452;DHT22;8843;48.838;9.324;2022-07-24T13:14:34;30.80;50.00
17452;DHT22;8843;48.838;9.324;2022-07-24T13:17:03;30.60;50.50
17452;DHT22;8843;48.838;9.324;2022-07-24T13:19:31;30.70;49.80
17452;DHT22;8843;48.838;9.324;2022-07-24T13:21:58;30.80;49.60
17452;DHT22;8843;48.838;9.324;2022-07-24T13:24:26;30.90;50.10
17452;DHT22;8843;48.838;9.324;2022-07-24T13:26:55;31.00;50.10
17452;DHT22;8843;48.838;9.324;2022-07-24T13:29:22;30.70;49.80
17452;DHT22;8843;48.838;9.324;2022-07-24T13:31:50;30.70;49.10
17452;DHT22;8843;48.838;9.324;2022-07-24T13:34:16;30.10;50.20
17452;DHT22;8843;48.838;9.324;2022-07-24T13:36:45;30.40;50.10
17452;DHT22;8843;48.838;9.324;2022-07-24T13:39:12;30.40;49.40
17452;DHT22;8843;48.838;9.324;2022-07-24T13:41:39;30.70;49.10
17452;DHT22;8843;48.838;9.324;2022-07-24T13:44:06;30.50;49.30
17452;DHT22;8843;48.838;9.324;2022-07-24T13:46:34;30.20;49.80
17452;DHT22;8843;48.838;9.324;2022-07-24T13:49:02;30.40;49.10
17452;DHT22;8843;48.838;9.324;2022-07-24T13:51:29;30.70;49.30
17452;DHT22;8843;48.838;9.324;2022-07-24T13:53:57;30.80;49.10
17452;DHT22;8843;48.838;9.324;2022-07-24T13:56:25;31.00;48.10
17452;DHT22;8843;48.838;9.324;2022-07-24T13:58:53;30.90;49.00
17452;DHT22;8843;48.838;9.324;2022-07-24T14:01:20;31.00;48.40
17452;DHT22;8843;48.838;9.324;2022-07-24T14:03:47;31.10;47.80
17452;DHT22;8843;48.838;9.324;2022-07-24T14:06:14;31.00;48.40
17452;DHT22;8843;48.838;9.324;2022-07-24T14:08:41;31.10;47.70
17452;DHT22;8843;48.838;9.324;2022-07-24T14:11:10;31.10;47.90
17452;DHT22;8843;48.838;9.324;2022-07-24T14:13:37;31.00;48.30
17452;DHT22;8843;48.838;9.324;2022-07-24T14:16:05;31.10;48.20
17452;DHT22;8843;48.838;9.324;2022-07-24T14:18:32;31.10;47.90
17452;DHT22;8843;48.838;9.324;2022-07-24T14:20:59;31.20;47.90
17452;DHT22;8843;48.838;9.324;2022-07-24T14:23:26;31.20;48.10
17452;DHT22;8843;48.838;9.324;2022-07-24T14:25:53;31.20;48.00
17452;DHT22;8843;48.838;9.324;2022-07-24T14:28:21;31.20;48.00
17452;DHT22;8843;48.838;9.324;2022-07-24T14:30:48;31.20;47.40
17452;DHT22;8843;48.838;9.324;2022-07-24T14:33:15;31.30;47.60
17452;DHT22;8843;48.838;9.324;2022-07-24T14:35:42;31.20;47.60
17452;DHT22;8843;48.838;9.324;2022-07-24T14:38:09;31.20;47.70
17452;DHT22;8843;48.838;9.324;2022-07-24T14:40:36;31.20;47.40
17452;DHT22;8843;48.838;9.324;2022-07-24T14:43:03;31.20;47.10
17452;DHT22;8843;48.838;9.324;2022-07-24T14:45:31;31.20;47.70
17452;DHT22;8843;48.838;9.324;2022-07-24T14:47:58;31.30;48.00
17452;DHT22;8843;48.838;9.324;2022-07-24T14:50:25;31.10;47.80
17452;DHT22;8843;48.838;9.324;2022-07-24T14:52:52;31.20;47.50
17452;DHT22;8843;48.838;9.324;2022-07-24T14:55:19;31.20;47.80
17452;DHT22;8843;48.838;9.324;2022-07-24T14:57:45;31.20;47.70
17452;DHT22;8843;48.838;9.324;2022-07-24T15:00:13;31.10;47.40
17452;DHT22;8843;48.838;9.324;2022-07-24T15:02:42;31.10;47.50
17452;DHT22;8843;48.838;9.324;2022-07-24T15:05:09;30.90;47.50
17452;DHT22;8843;48.838;9.324;2022-07-24T15:07:36;31.10;47.40
17452;DHT22;8843;48.838;9.324;2022-07-24T15:10:04;30.90;47.90
17452;DHT22;8843;48.838;9.324;2022-07-24T15:12:31;31.00;46.90
17452;DHT22;8843;48.838;9.324;2022-07-24T15:14:58;30.90;48.00
17452;DHT22;8843;48.838;9.324;2022-07-24T15:17:24;30.70;47.80
17452;DHT22;8843;48.838;9.324;2022-07-24T15:19:53;30.80;47.60
17452;DHT22;8843;48.838;9.324;2022-07-24T15:22:20;30.70;47.80
17452;DHT22;8843;48.838;9.324;2022-07-24T15:24:46;30.70;47.80
17452;DHT22;8843;48.838;9.324;2022-07-24T15:27:13;30.40;47.30
17452;DHT22;8843;48.838;9.324;2022-07-24T15:29:40;29.40;51.50
17452;DHT22;8843;48.838;9.324;2022-07-24T15:32:07;28.40;54.30
17452;DHT22;8843;48.838;9.324;2022-07-24T15:34:34;27.60;56.30
17452;DHT22;8843;48.838;9.324;2022-07-24T15:37:02;27.20;57.10
17452;DHT22;8843;48.838;9.324;2022-07-24T15:39:29;27.00;57.70
17452;DHT22;8843;48.838;9.324;2022-07-24T15:41:56;26.80;58.20
17452;DHT22;8843;48.838;9.324;2022-07-24T15:44:23;26.80;58.40
17452;DHT22;8843;48.838;9.324;2022-07-24T15:46:50;26.70;58.60
17452;DHT22;8843;48.838;9.324;2022-07-24T15:49:17;26.60;58.80
17452;DHT22;8843;48.838;9.324;2022-07-24T15:51:44;26.60;59.10
17452;DHT22;8843;48.838;9.324;2022-07-24T15:54:12;26.60;59.60
17452;DHT22;8843;48.838;9.324;2022-07-24T15:56:39;26.50;59.40